Time;durP1;ratioP1;P1;durP2;ratioP2;P2;SDS_P1;SDS_P2;PMS_P1;PMS_P2;Temp;Humidity;BMP_temperature;BMP_pressure;BME280_temperature;BME280_humidity;BME280_pressure;Samples;Min_cycle;Max_cycle;Signal;HPM_P1;HPM_P2
2022/09/07 00:01:09;;;;;;;12.30;3.57;;;21.20;63.50;;;;;;5036539;28;20569;-73
2022/09/07 00:03:37;;;;;;;8.43;3.50;;;21.20;63.70;;;;;;5029944;28;20466;-73
2022/09/07 00:06:09;;;;;;;9.70;3.53;;;21.20;63.80;;;;;;5026047;28;20465;-75
2022/09/07 00:08:39;;;;;;;6.77;3.37;;;21.20;63.90;;;;;;5030633;28;20457;-73
2022/09/07 00:11:11;;;;;;;7.30;3.63;;;21.20;63.90;;;;;;5019833;28;21062;-73
2022/09/07 00:13:42;;;;;;;11.67;4.50;;;21.20;64.00;;;;;;5035380;28;20468;-73
2022/09/07 00:16:12;;;;;;;5.50;3.50;;;21.20;64.10;;;;;;5027990;28;20560;-73
2022/09/07 00:18:40;;;;;;;7.30;3.67;;;21.20;64.20;;;;;;5015798;28;20568;-73
2022/09/07 00:21:16;;;;;;;11.00;4.23;;;21.30;64.20;;;;;;5031537;28;20486;-73
2022/09/07 00:23:45;;;;;;;6.90;3.50;;;21.20;64.10;;;;;;5038434;28;20465;-73
2022/09/07 00:26:14;;;;;;;6.77;4.30;;;21.20;64.00;;;;;;5037389;28;20459;-73
2022/09/07 00:28:43;;;;;;;6.80;3.37;;;21.20;64.00;;;;;;5033103;28;20487;-73
2022/09/07 00:31:14;;;;;;;8.93;3.90;;;21.10;64.00;;;;;;5044370;28;20509;-73
2022/09/07 00:33:43;;;;;;;6.87;3.17;;;21.10;64.10;;;;;;5017805;28;21055;-73
2022/09/07 00:36:11;;;;;;;8.80;3.57;;;21.10;64.20;;;;;;5019233;28;20480;-73
2022/09/07 00:38:41;;;;;;;10.53;3.90;;;21.00;64.30;;;;;;5013951;28;20476;-73
2022/09/07 00:41:10;;;;;;;7.77;3.97;;;21.00;64.40;;;;;;5019784;28;20489;-73
2022/09/07 00:43:40;;;;;;;6.73;3.83;;;21.00;64.50;;;;;;5022623;28;20465;-73
2022/09/07 00:46:13;;;;;;;7.47;3.53;;;21.00;64.60;;;;;;5034701;28;20860;-73
2022/09/07 00:48:46;;;;;;;8.77;4.40;;;21.00;64.70;;;;;;5037260;28;20838;-73
2022/09/07 00:51:18;;;;;;;7.00;3.83;;;21.00;64.80;;;;;;5018172;28;20488;-73
2022/09/07 00:53:53;;;;;;;8.60;3.80;;;21.10;64.80;;;;;;5036236;28;20535;-73
2022/09/07 00:56:23;;;;;;;8.10;4.30;;;21.00;64.80;;;;;;5034798;28;20464;-73
2022/09/07 00:58:52;;;;;;;9.07;4.13;;;21.00;64.80;;;;;;5032509;28;20494;-73
2022/09/07 01:01:21;;;;;;;8.00;3.93;;;21.00;64.80;;;;;;5030185;28;20487;-73
2022/09/07 01:03:51;;;;;;;10.23;4.50;;;21.00;64.90;;;;;;5023037;28;20770;-72
2022/09/07 01:06:22;;;;;;;10.10;4.00;;;20.90;64.90;;;;;;5034294;28;21271;-73
2022/09/07 01:08:51;;;;;;;7.10;4.13;;;20.90;65.10;;;;;;5035945;28;20460;-73
2022/09/07 01:11:22;;;;;;;6.53;3.30;;;20.90;65.20;;;;;;5018513;28;20484;-73
2022/09/07 01:13:51;;;;;;;7.90;4.00;;;20.90;65.20;;;;;;5038406;28;20464;-73
2022/09/07 01:16:32;;;;;;;5.90;3.70;;;20.90;65.30;;;;;;5019551;28;20515;-72
2022/09/07 01:19:13;;;;;;;8.47;3.93;;;20.90;65.30;;;;;;5039813;28;20479;-73
2022/09/07 01:21:55;;;;;;;8.10;4.13;;;20.90;65.30;;;;;;5042784;28;21061;-72
2022/09/07 01:24:52;;;;;;;7.43;3.83;;;20.90;65.30;;;;;;5027116;28;20470;-72
2022/09/07 01:27:51;;;;;;;6.63;3.83;;;20.90;65.30;;;;;;5035555;28;20469;-72
2022/09/07 01:30:20;;;;;;;10.13;3.93;;;20.90;65.30;;;;;;5043337;28;20481;-72
2022/09/07 01:33:09;;;;;;;7.23;3.63;;;20.90;65.30;;;;;;5034714;28;20570;-73
2022/09/07 01:35:45;;;;;;;10.17;3.87;;;20.90;65.30;;;;;;5035231;28;20475;-72
2022/09/07 01:38:19;;;;;;;15.20;3.97;;;20.80;65.40;;;;;;5035913;28;20459;-72
2022/09/07 01:40:55;;;;;;;6.97;3.47;;;20.80;65.50;;;;;;5021080;28;20505;-72
2022/09/07 01:43:34;;;;;;;7.07;3.80;;;20.70;65.60;;;;;;5022008;28;21080;-72
2022/09/07 01:46:05;;;;;;;8.87;3.50;;;20.70;65.80;;;;;;5036222;28;20589;-72
2022/09/07 01:48:35;;;;;;;7.07;4.10;;;20.80;65.80;;;;;;5034095;28;21103;-73
2022/09/07 01:51:05;;;;;;;8.20;4.00;;;20.80;65.80;;;;;;5038946;28;21316;-73
2022/09/07 01:53:38;;;;;;;7.73;3.57;;;20.70;65.80;;;;;;5036176;28;20467;-72
2022/09/07 01:56:10;;;;;;;7.57;3.70;;;20.70;65.90;;;;;;5036003;28;21038;-73
2022/09/07 01:58:43;;;;;;;6.53;3.90;;;20.60;66.00;;;;;;5036639;28;20469;-73
2022/09/07 02:01:16;;;;;;;6.73;3.63;;;20.70;66.10;;;;;;5037154;28;21037;-73
2022/09/07 02:03:49;;;;;;;6.23;4.17;;;20.70;66.10;;;;;;5019798;28;20458;-73
2022/09/07 02:06:22;;;;;;;8.63;4.30;;;20.70;66.00;;;;;;5034917;28;20455;-73
2022/09/07 02:08:55;;;;;;;11.23;4.87;;;20.70;66.10;;;;;;5035686;28;20466;-73
2022/09/07 02:11:29;;;;;;;6.53;3.60;;;20.70;66.10;;;;;;5036953;28;20494;-73
2022/09/07 02:14:02;;;;;;;6.40;3.63;;;20.60;66.20;;;;;;5036791;28;20847;-73
2022/09/07 02:16:34;;;;;;;8.40;4.57;;;20.60;66.20;;;;;;5036978;28;20964;-72
2022/09/07 02:19:08;;;;;;;8.30;4.37;;;20.60;66.30;;;;;;5035981;28;21036;-73
2022/09/07 02:21:40;;;;;;;7.27;3.83;;;20.60;66.20;;;;;;5016553;28;20526;-73
2022/09/07 02:24:12;;;;;;;8.13;4.10;;;20.60;66.20;;;;;;5032605;28;20524;-73
2022/09/07 02:26:41;;;;;;;7.97;3.77;;;20.60;66.30;;;;;;5016644;28;20985;-73
2022/09/07 02:29:10;;;;;;;8.60;4.03;;;20.50;66.30;;;;;;5018483;28;20485;-73
2022/09/07 02:31:38;;;;;;;8.17;3.93;;;20.50;66.30;;;;;;5036325;28;20486;-73
2022/09/07 02:34:06;;;;;;;7.47;4.20;;;20.40;66.40;;;;;;5035512;28;20545;-73
2022/09/07 02:36:39;;;;;;;7.10;4.57;;;20.40;66.50;;;;;;5038327;28;20460;-73
2022/09/07 02:39:07;;;;;;;9.10;4.40;;;20.30;66.60;;;;;;5029000;28;20559;-73
2022/09/07 02:41:38;;;;;;;8.63;4.23;;;20.20;66.90;;;;;;5025761;28;20516;-73
2022/09/07 02:44:09;;;;;;;9.70;4.50;;;20.30;67.10;;;;;;5017292;28;21059;-73
2022/09/07 02:46:52;;;;;;;9.00;4.50;;;20.30;67.30;;;;;;5031117;28;20477;-73
2022/09/07 02:49:38;;;;;;;7.03;4.07;;;20.30;67.40;;;;;;5035773;28;20542;-74
2022/09/07 02:52:19;;;;;;;7.37;4.03;;;20.30;67.50;;;;;;5032502;28;20837;-73
2022/09/07 02:54:59;;;;;;;6.23;3.80;;;20.30;67.60;;;;;;5017267;28;20456;-74
2022/09/07 02:57:43;;;;;;;9.23;4.93;;;20.40;67.70;;;;;;5022429;28;20525;-73
2022/09/07 03:00:13;;;;;;;8.23;4.27;;;20.40;67.60;;;;;;5033929;28;20490;-73
2022/09/07 03:02:51;;;;;;;10.03;4.20;;;20.40;67.50;;;;;;5013653;28;20489;-73
2022/09/07 03:05:23;;;;;;;8.20;4.13;;;20.40;67.60;;;;;;5036769;28;20548;-73
2022/09/07 03:07:55;;;;;;;9.00;5.03;;;20.40;67.70;;;;;;5030501;28;21258;-73
2022/09/07 03:10:24;;;;;;;8.60;4.40;;;20.40;67.80;;;;;;5016337;28;20481;-73
2022/09/07 03:12:52;;;;;;;8.43;4.40;;;20.40;67.90;;;;;;5035035;28;20470;-73
2022/09/07 03:15:22;;;;;;;6.87;4.37;;;20.40;68.00;;;;;;5038751;28;20456;-73
2022/09/07 03:17:52;;;;;;;7.63;4.63;;;20.40;68.20;;;;;;5050019;28;20466;-73
2022/09/07 03:20:20;;;;;;;11.43;4.10;;;20.50;68.30;;;;;;5044473;28;20486;-73
2022/09/07 03:22:50;;;;;;;7.37;4.30;;;20.50;68.40;;;;;;5026167;28;20460;-74
2022/09/07 03:25:19;;;;;;;9.47;4.77;;;20.60;68.50;;;;;;5040457;28;20469;-73
2022/09/07 03:27:47;;;;;;;7.73;4.50;;;20.60;68.60;;;;;;5037637;28;20460;-73
2022/09/07 03:30:15;;;;;;;8.57;4.10;;;20.60;68.80;;;;;;5034940;28;21003;-73
2022/09/07 03:32:43;;;;;;;8.20;4.40;;;20.60;68.90;;;;;;5019240;28;20466;-73
2022/09/07 03:35:13;;;;;;;9.90;4.50;;;20.60;69.10;;;;;;5039694;28;20462;-73
2022/09/07 03:37:41;;;;;;;11.33;4.70;;;20.60;69.30;;;;;;5026060;28;20456;-74
2022/09/07 03:40:11;;;;;;;9.30;5.57;;;20.60;69.40;;;;;;5019604;28;21064;-74
2022/09/07 03:42:40;;;;;;;9.63;5.13;;;20.60;69.60;;;;;;5035035;28;20466;-73
2022/09/07 03:45:09;;;;;;;9.63;5.07;;;20.60;69.70;;;;;;5041097;28;20463;-73
2022/09/07 03:47:37;;;;;;;11.07;5.43;;;20.60;69.90;;;;;;5035158;28;20589;-73
2022/09/07 03:50:07;;;;;;;8.77;5.67;;;20.60;70.10;;;;;;5035134;28;20494;-73
2022/09/07 03:52:37;;;;;;;12.30;5.50;;;20.60;70.40;;;;;;5037081;28;20503;-73
2022/09/07 03:55:05;;;;;;;12.40;5.23;;;20.60;70.70;;;;;;5027891;28;20490;-74
2022/09/07 03:57:33;;;;;;;8.97;5.33;;;20.60;70.90;;;;;;5041427;28;20458;-73
2022/09/07 04:00:02;;;;;;;12.37;5.43;;;20.60;71.10;;;;;;5027560;28;20497;-73
2022/09/07 04:02:39;;;;;;;11.20;5.77;;;20.50;71.30;;;;;;5038656;28;20463;-73
2022/09/07 04:05:08;;;;;;;10.00;6.20;;;20.50;71.40;;;;;;5035808;28;20484;-73
2022/09/07 04:07:37;;;;;;;10.40;6.00;;;20.40;71.70;;;;;;5019401;28;20468;-73
2022/09/07 04:10:06;;;;;;;9.13;4.90;;;20.40;72.00;;;;;;5039427;28;20607;-73
2022/09/07 04:12:33;;;;;;;9.53;6.00;;;20.40;72.20;;;;;;5026898;28;20468;-73
2022/09/07 04:15:01;;;;;;;7.43;5.00;;;20.40;72.40;;;;;;5039256;28;20487;-73
2022/09/07 04:17:29;;;;;;;9.50;5.63;;;20.40;72.70;;;;;;5039098;28;20465;-73
2022/09/07 04:19:57;;;;;;;9.43;5.80;;;20.40;73.00;;;;;;5036269;28;20499;-73
2022/09/07 04:22:25;;;;;;;11.90;6.47;;;20.40;73.10;;;;;;5039908;28;20578;-73
2022/09/07 04:24:54;;;;;;;14.20;6.20;;;20.40;73.30;;;;;;5037514;28;20469;-73
2022/09/07 04:27:22;;;;;;;9.73;6.43;;;20.40;73.40;;;;;;5022280;28;20487;-73
2022/09/07 04:29:50;;;;;;;12.90;6.13;;;20.40;73.60;;;;;;5035743;28;20479;-73
2022/09/07 04:32:18;;;;;;;7.80;5.07;;;20.40;73.80;;;;;;5037432;28;20462;-73
2022/09/07 04:34:47;;;;;;;14.50;6.90;;;20.40;74.00;;;;;;5035199;28;21016;-73
2022/09/07 04:37:15;;;;;;;11.63;6.20;;;20.50;74.10;;;;;;5038490;28;20472;-73
2022/09/07 04:39:43;;;;;;;14.50;5.63;;;20.50;74.60;;;;;;5019314;28;20493;-73
2022/09/07 04:42:13;;;;;;;9.10;6.23;;;20.40;74.50;;;;;;5040103;28;20487;-73
2022/09/07 04:44:41;;;;;;;9.97;5.87;;;20.30;75.00;;;;;;5018511;28;20477;-74
2022/09/07 04:47:09;;;;;;;12.27;6.60;;;20.20;75.20;;;;;;5037268;28;20467;-73
2022/09/07 04:49:37;;;;;;;12.23;6.50;;;20.10;75.20;;;;;;5039554;28;20563;-73
2022/09/07 04:52:04;;;;;;;8.60;6.20;;;20.10;75.40;;;;;;5028610;28;20473;-73
2022/09/07 04:54:32;;;;;;;12.30;4.70;;;20.10;75.70;;;;;;5043406;28;20458;-73
2022/09/07 04:57:00;;;;;;;8.60;4.67;;;20.10;75.80;;;;;;5045816;28;20472;-73
2022/09/07 04:59:30;;;;;;;10.17;5.43;;;20.20;76.00;;;;;;5042525;28;20456;-73
2022/09/07 05:01:58;;;;;;;9.50;5.07;;;20.20;76.10;;;;;;5044097;28;20497;-73
2022/09/07 05:04:26;;;;;;;10.27;5.30;;;20.30;76.20;;;;;;5050317;28;20482;-73
2022/09/07 05:06:54;;;;;;;10.13;6.10;;;20.40;76.20;;;;;;5040116;28;20462;-73
2022/09/07 05:09:22;;;;;;;8.13;5.43;;;20.40;76.10;;;;;;5036979;28;20464;-73
2022/09/07 05:11:50;;;;;;;13.70;5.20;;;20.50;76.10;;;;;;5020034;28;20459;-73
2022/09/07 05:14:19;;;;;;;8.23;5.27;;;20.50;76.10;;;;;;5021634;28;20464;-73
2022/09/07 05:16:48;;;;;;;10.57;5.40;;;20.60;76.10;;;;;;5020756;28;21124;-73
2022/09/07 05:19:16;;;;;;;11.50;5.03;;;20.60;76.10;;;;;;5020537;28;20514;-73
2022/09/07 05:21:44;;;;;;;11.63;5.60;;;20.60;76.10;;;;;;5023915;28;20475;-73
2022/09/07 05:24:12;;;;;;;11.00;5.13;;;20.70;76.10;;;;;;5021319;28;20472;-73
2022/09/07 05:26:40;;;;;;;10.10;5.13;;;20.70;76.10;;;;;;5035967;28;20470;-73
2022/09/07 05:29:08;;;;;;;8.90;5.77;;;20.80;76.00;;;;;;5020071;28;20590;-73
2022/09/07 05:31:58;;;;;;;11.97;5.13;;;20.80;76.00;;;;;;5031824;28;20450;-73
2022/09/07 05:34:26;;;;;;;7.97;4.83;;;20.90;75.90;;;;;;5034967;28;20451;-73
2022/09/07 05:36:55;;;;;;;9.97;6.17;;;20.90;75.90;;;;;;5038623;28;20565;-73
2022/09/07 05:39:23;;;;;;;9.20;4.60;;;20.90;75.80;;;;;;5032288;28;20475;-74
2022/09/07 05:41:51;;;;;;;9.87;5.20;;;21.00;75.80;;;;;;5017728;28;20476;-73
2022/09/07 05:44:19;;;;;;;8.83;5.40;;;21.00;75.80;;;;;;5034515;28;20558;-73
2022/09/07 05:47:08;;;;;;;9.30;5.30;;;21.00;75.60;;;;;;5016736;28;20475;-73
2022/09/07 05:49:37;;;;;;;13.70;5.27;;;21.00;75.60;;;;;;5033173;28;21339;-73
2022/09/07 05:52:05;;;;;;;14.33;5.40;;;20.90;75.80;;;;;;5041778;28;20468;-72
2022/09/07 05:54:33;;;;;;;8.63;4.90;;;20.80;75.90;;;;;;5037004;28;20460;-73
2022/09/07 05:57:02;;;;;;;12.07;5.57;;;20.80;76.00;;;;;;5026931;28;20455;-73
2022/09/07 05:59:30;;;;;;;9.67;5.60;;;20.70;76.30;;;;;;5035376;28;20468;-73
2022/09/07 06:01:58;;;;;;;11.80;5.23;;;20.70;76.40;;;;;;5035536;28;20598;-74
2022/09/07 06:04:28;;;;;;;11.53;5.80;;;20.70;76.50;;;;;;5019662;28;20462;-74
2022/09/07 06:06:56;;;;;;;9.37;5.43;;;20.70;76.60;;;;;;5016723;28;20462;-73
2022/09/07 06:09:44;;;;;;;7.67;4.93;;;20.70;76.70;;;;;;5036045;28;21086;-74
2022/09/07 06:12:32;;;;;;;9.10;5.00;;;20.80;76.80;;;;;;5017234;28;20454;-74
2022/09/07 06:15:00;;;;;;;8.70;5.10;;;20.90;76.80;;;;;;5032297;28;20846;-73
2022/09/07 06:17:29;;;;;;;8.60;5.10;;;21.00;76.80;;;;;;5028723;28;20457;-74
2022/09/07 06:19:59;;;;;;;9.07;5.40;;;21.10;76.90;;;;;;5038432;28;20517;-73
2022/09/07 06:22:27;;;;;;;12.20;5.20;;;21.20;76.70;;;;;;5022828;28;20567;-74
2022/09/07 06:24:58;;;;;;;10.70;5.20;;;21.30;76.50;;;;;;5032919;28;20548;-74
2022/09/07 06:27:26;;;;;;;9.73;5.03;;;21.40;76.40;;;;;;5035653;28;20464;-74
2022/09/07 06:29:54;;;;;;;8.40;4.60;;;21.40;76.30;;;;;;5040278;28;20568;-74
2022/09/07 06:32:22;;;;;;;7.93;4.53;;;21.60;76.20;;;;;;5024699;28;20539;-74
2022/09/07 06:35:11;;;;;;;7.60;4.20;;;21.60;76.00;;;;;;5030823;28;20473;-73
2022/09/07 06:37:40;;;;;;;13.03;4.83;;;21.70;75.80;;;;;;5035637;28;20466;-74
2022/09/07 06:40:10;;;;;;;8.57;4.70;;;21.70;75.70;;;;;;5034737;28;20808;-73
2022/09/07 06:42:38;;;;;;;9.87;5.17;;;21.80;75.60;;;;;;5031692;28;20476;-73
2022/09/07 06:45:09;;;;;;;8.63;4.27;;;21.80;75.50;;;;;;5032067;28;20827;-74
2022/09/07 06:47:38;;;;;;;9.40;5.43;;;21.90;75.40;;;;;;5034194;28;20475;-74
2022/09/07 06:50:07;;;;;;;13.43;5.07;;;21.90;75.40;;;;;;5037260;28;20478;-73
2022/09/07 06:52:38;;;;;;;10.10;4.63;;;21.90;75.30;;;;;;5036370;28;20484;-73
2022/09/07 06:55:26;;;;;;;9.77;5.30;;;21.90;75.20;;;;;;5037403;28;20476;-73
2022/09/07 06:57:54;;;;;;;7.37;4.30;;;22.00;75.20;;;;;;5039372;28;20528;-73
2022/09/07 07:00:22;;;;;;;12.03;4.00;;;22.00;75.20;;;;;;5038494;28;21355;-73
2022/09/07 07:02:50;;;;;;;8.70;4.03;;;22.00;75.10;;;;;;5040014;28;20535;-74
2022/09/07 07:05:18;;;;;;;10.93;4.70;;;22.10;75.10;;;;;;5038917;28;20491;-73
2022/09/07 07:07:47;;;;;;;6.70;4.17;;;22.10;75.00;;;;;;5025221;28;20454;-73
2022/09/07 07:10:15;;;;;;;9.17;4.30;;;22.20;74.90;;;;;;5031746;28;20488;-74
2022/09/07 07:12:49;;;;;;;7.67;4.13;;;22.20;74.80;;;;;;5037915;28;20466;-74
2022/09/07 07:15:17;;;;;;;12.07;3.93;;;22.20;74.70;;;;;;5023427;28;20470;-74
2022/09/07 07:17:45;;;;;;;9.27;4.23;;;22.20;74.70;;;;;;5028603;28;20466;-73
2022/09/07 07:20:22;;;;;;;9.33;4.37;;;22.20;74.70;;;;;;5036097;28;20507;-74
2022/09/07 07:22:52;;;;;;;9.80;3.97;;;22.20;74.60;;;;;;5035509;28;20485;-73
2022/09/07 07:25:20;;;;;;;8.83;4.23;;;22.30;74.60;;;;;;5033545;28;20465;-74
2022/09/07 07:27:49;;;;;;;10.07;4.00;;;22.30;74.60;;;;;;5039323;28;20475;-73
2022/09/07 07:30:18;;;;;;;10.80;3.70;;;22.30;74.40;;;;;;5037257;28;20490;-74
2022/09/07 07:32:47;;;;;;;8.43;3.97;;;22.40;74.40;;;;;;5039442;28;20461;-73
2022/09/07 07:35:15;;;;;;;6.50;3.33;;;22.40;74.40;;;;;;5036450;28;21319;-74
2022/09/07 07:37:43;;;;;;;9.90;3.20;;;22.40;74.40;;;;;;5035570;28;20505;-74
2022/09/07 07:40:13;;;;;;;7.20;3.03;;;22.50;74.20;;;;;;5028699;28;20564;-74
2022/09/07 07:42:43;;;;;;;9.37;3.20;;;22.50;74.20;;;;;;5036527;28;20586;-74
2022/09/07 07:45:11;;;;;;;11.13;3.93;;;22.50;74.10;;;;;;5021764;28;20463;-74
2022/09/07 07:47:59;;;;;;;9.60;2.90;;;22.60;74.00;;;;;;5052902;28;20697;-74
2022/09/07 07:50:27;;;;;;;9.23;3.53;;;22.60;74.00;;;;;;5034216;28;20569;-74
2022/09/07 07:53:00;;;;;;;8.10;3.30;;;22.60;74.00;;;;;;5037745;28;20519;-74
2022/09/07 07:55:49;;;;;;;8.13;3.67;;;22.70;74.00;;;;;;5036791;28;20468;-74
2022/09/07 07:58:17;;;;;;;9.13;3.77;;;22.70;74.00;;;;;;5030734;28;20467;-74
2022/09/07 08:00:45;;;;;;;7.03;3.30;;;22.70;74.00;;;;;;5015699;28;20507;-74
2022/09/07 08:03:23;;;;;;;7.17;3.27;;;22.70;74.00;;;;;;5030985;28;20498;-74
2022/09/07 08:05:52;;;;;;;6.50;2.83;;;22.80;73.90;;;;;;5025386;28;20468;-74
2022/09/07 08:08:22;;;;;;;13.30;4.37;;;22.90;73.80;;;;;;5042534;28;20446;-74
2022/09/07 08:10:51;;;;;;;6.97;3.07;;;22.90;73.70;;;;;;5040894;28;20468;-74
2022/09/07 08:13:20;;;;;;;7.00;2.80;;;22.90;73.70;;;;;;5035884;28;20465;-74
2022/09/07 08:15:48;;;;;;;6.40;2.93;;;23.00;73.50;;;;;;5031592;28;20483;-74
2022/09/07 08:18:16;;;;;;;8.07;2.97;;;23.10;73.40;;;;;;5035279;28;20512;-74
2022/09/07 08:20:44;;;;;;;5.87;3.10;;;23.10;73.30;;;;;;5033176;28;20491;-74
2022/09/07 08:23:14;;;;;;;8.80;3.00;;;23.20;73.20;;;;;;5039322;28;20494;-74
2022/09/07 08:25:51;;;;;;;6.80;2.50;;;23.20;73.20;;;;;;5033738;28;20473;-74
2022/09/07 08:28:19;;;;;;;6.40;3.10;;;23.30;72.90;;;;;;5019726;28;20469;-74
2022/09/07 08:30:47;;;;;;;9.53;2.83;;;23.40;72.80;;;;;;5036270;28;20479;-74
2022/09/07 08:33:16;;;;;;;9.53;3.00;;;23.40;72.70;;;;;;5037812;28;20473;-74
2022/09/07 08:35:55;;;;;;;9.90;2.90;;;23.40;72.60;;;;;;5040963;28;20529;-74
2022/09/07 08:38:23;;;;;;;10.10;2.67;;;23.40;72.50;;;;;;5041286;28;20538;-74
2022/09/07 08:40:53;;;;;;;8.20;3.03;;;23.50;72.50;;;;;;5038473;28;20492;-74
2022/09/07 08:43:30;;;;;;;5.83;2.50;;;23.50;72.40;;;;;;5033567;28;20478;-74
2022/09/07 08:46:04;;;;;;;9.93;2.80;;;23.60;72.30;;;;;;5039968;28;20461;-74
2022/09/07 08:48:34;;;;;;;6.93;2.60;;;23.60;72.20;;;;;;5036946;28;20460;-74
2022/09/07 08:51:09;;;;;;;9.50;3.70;;;23.70;72.10;;;;;;5040910;28;20483;-74
2022/09/07 08:53:44;;;;;;;7.50;2.70;;;23.80;71.80;;;;;;5034361;28;20497;-74
2022/09/07 08:56:18;;;;;;;8.27;3.40;;;23.80;71.80;;;;;;5020562;28;20982;-74
2022/09/07 08:58:48;;;;;;;8.83;2.73;;;23.80;71.60;;;;;;5037646;28;20482;-74
2022/09/07 09:01:19;;;;;;;10.83;3.00;;;23.90;71.60;;;;;;5034010;28;20855;-74
2022/09/07 09:04:04;;;;;;;12.17;2.80;;;23.90;71.50;;;;;;5030136;28;21069;-74
2022/09/07 09:07:05;;;;;;;8.07;2.93;;;24.00;71.40;;;;;;5020895;28;21168;-74
2022/09/07 09:09:57;;;;;;;10.50;2.67;;;24.00;71.50;;;;;;5037854;28;20878;-74
2022/09/07 09:12:33;;;;;;;10.03;2.93;;;24.10;71.40;;;;;;5028582;28;20970;-74
2022/09/07 09:15:15;;;;;;;8.10;2.60;;;24.10;71.40;;;;;;5019690;28;20459;-74
2022/09/07 09:17:47;;;;;;;8.70;2.80;;;24.20;71.40;;;;;;5031328;28;20458;-74
2022/09/07 09:20:23;;;;;;;7.87;2.87;;;24.20;71.40;;;;;;5038013;28;20490;-74
2022/09/07 09:22:52;;;;;;;10.40;3.83;;;24.30;71.30;;;;;;5037726;28;20462;-74
2022/09/07 09:25:25;;;;;;;8.47;2.87;;;24.30;71.20;;;;;;5017279;28;20463;-74
2022/09/07 09:27:54;;;;;;;8.00;2.67;;;24.40;71.10;;;;;;5034076;28;20468;-74
2022/09/07 09:30:23;;;;;;;8.20;2.70;;;24.40;71.00;;;;;;5033988;28;20486;-74
2022/09/07 09:32:52;;;;;;;11.30;2.53;;;24.50;70.90;;;;;;5038503;28;20460;-73
2022/09/07 09:35:27;;;;;;;10.07;3.00;;;24.50;70.80;;;;;;5033318;28;21052;-75
2022/09/07 09:37:56;;;;;;;11.23;3.17;;;24.50;70.80;;;;;;5033406;28;20533;-74
2022/09/07 09:40:27;;;;;;;8.03;2.97;;;24.50;70.70;;;;;;5021017;28;20482;-74
2022/09/07 09:43:02;;;;;;;6.20;2.80;;;24.60;70.60;;;;;;5035450;28;20539;-74
2022/09/07 09:45:34;;;;;;;8.47;2.80;;;24.60;70.60;;;;;;5032455;28;20457;-74
2022/09/07 09:48:30;;;;;;;9.60;2.40;;;24.60;70.60;;;;;;5039303;28;20514;-74
2022/09/07 09:50:59;;;;;;;8.33;3.20;;;24.70;70.50;;;;;;5041817;28;20482;-74
2022/09/07 09:53:54;;;;;;;9.47;2.80;;;24.70;70.40;;;;;;5032708;28;20467;-74
2022/09/07 09:56:35;;;;;;;8.90;2.87;;;24.70;70.30;;;;;;5038336;28;20457;-75
2022/09/07 09:59:19;;;;;;;6.10;2.60;;;24.70;70.30;;;;;;5031328;28;20473;-74
2022/09/07 10:02:25;;;;;;;6.13;2.83;;;24.70;70.10;;;;;;5042860;28;20519;-74
2022/09/07 10:05:26;;;;;;;7.83;2.57;;;24.80;69.70;;;;;;5037334;28;20490;-74
2022/09/07 10:07:55;;;;;;;13.63;3.20;;;24.80;69.80;;;;;;5039471;28;20453;-74
2022/09/07 10:10:23;;;;;;;5.67;2.10;;;24.90;69.60;;;;;;5038002;28;21022;-74
2022/09/07 10:12:54;;;;;;;11.80;2.67;;;24.90;69.70;;;;;;5019230;28;20843;-74
2022/09/07 10:15:34;;;;;;;8.13;2.63;;;25.00;69.70;;;;;;5038435;28;20464;-74
2022/09/07 10:18:15;;;;;;;6.13;2.50;;;25.00;69.40;;;;;;5032288;28;20536;-74
2022/09/07 10:20:43;;;;;;;5.40;2.37;;;25.10;69.40;;;;;;5029952;28;21053;-74
2022/09/07 10:23:21;;;;;;;8.10;2.57;;;25.20;69.30;;;;;;5022552;28;20475;-74
2022/09/07 10:25:49;;;;;;;9.17;2.20;;;25.20;69.20;;;;;;5034165;28;20856;-74
2022/09/07 10:28:19;;;;;;;9.13;2.40;;;25.30;69.00;;;;;;5038240;28;20447;-74
2022/09/07 10:31:06;;;;;;;8.13;2.60;;;25.30;68.90;;;;;;5037594;28;20463;-74
2022/09/07 10:33:47;;;;;;;5.10;2.27;;;25.40;68.50;;;;;;5022166;28;20484;-74
2022/09/07 10:36:41;;;;;;;9.90;2.67;;;25.40;68.30;;;;;;5040682;28;20532;-74
2022/09/07 10:39:14;;;;;;;6.60;2.87;;;25.40;68.40;;;;;;5038658;28;20469;-74
2022/09/07 10:41:48;;;;;;;7.80;2.93;;;25.50;68.30;;;;;;5038856;28;20478;-74
2022/09/07 10:44:28;;;;;;;10.30;2.63;;;25.50;68.30;;;;;;5039874;28;20493;-74
2022/09/07 10:47:02;;;;;;;9.23;2.77;;;25.40;68.30;;;;;;5036131;28;20456;-74
2022/09/07 10:49:40;;;;;;;9.47;3.47;;;25.40;68.20;;;;;;5038760;28;20467;-74
2022/09/07 10:52:34;;;;;;;8.00;2.33;;;25.40;68.30;;;;;;5032798;28;20472;-74
2022/09/07 10:55:11;;;;;;;12.27;2.73;;;25.40;68.20;;;;;;5034878;28;20441;-74
2022/09/07 10:57:54;;;;;;;8.23;2.47;;;25.50;68.20;;;;;;5033566;28;20456;-74
2022/09/07 11:00:23;;;;;;;13.60;3.27;;;25.50;67.90;;;;;;5039464;28;20579;-74
2022/09/07 11:03:26;;;;;;;10.00;2.30;;;25.40;67.70;;;;;;5039269;28;20468;-74
2022/09/07 11:06:08;;;;;;;9.63;3.30;;;25.40;67.70;;;;;;5040099;28;20488;-74
2022/09/07 11:08:49;;;;;;;9.03;2.83;;;25.40;67.70;;;;;;5040750;28;20478;-74
2022/09/07 11:11:41;;;;;;;8.53;2.47;;;25.40;67.70;;;;;;5036786;28;20512;-73
2022/09/07 11:14:34;;;;;;;6.60;2.30;;;25.40;67.70;;;;;;5037911;28;20568;-74
2022/09/07 11:17:08;;;;;;;11.37;3.00;;;25.40;67.70;;;;;;5023134;28;20471;-74
2022/09/07 11:19:44;;;;;;;6.60;2.87;;;25.40;67.80;;;;;;5044929;28;20970;-74
2022/09/07 11:22:22;;;;;;;6.77;2.50;;;25.50;67.80;;;;;;5044421;28;20468;-74
2022/09/07 11:24:54;;;;;;;8.20;2.47;;;25.50;67.70;;;;;;5033295;28;20466;-74
2022/09/07 11:27:47;;;;;;;7.30;2.40;;;25.50;67.60;;;;;;5047524;28;20472;-74
2022/09/07 11:30:21;;;;;;;9.20;2.53;;;25.50;67.40;;;;;;5030769;28;20491;-74
2022/09/07 11:32:57;;;;;;;8.80;2.30;;;25.50;67.30;;;;;;5042229;28;20467;-74
2022/09/07 11:35:36;;;;;;;7.50;2.60;;;25.50;67.30;;;;;;5046914;28;20450;-74
2022/09/07 11:38:13;;;;;;;6.77;2.20;;;25.50;67.10;;;;;;5042397;28;20490;-74
2022/09/07 11:40:48;;;;;;;5.90;2.33;;;25.50;67.00;;;;;;5043906;28;21105;-74
2022/09/07 11:43:20;;;;;;;6.17;2.40;;;25.60;66.90;;;;;;5032573;28;20482;-75
2022/09/07 11:45:52;;;;;;;7.43;2.10;;;25.60;66.80;;;;;;5044595;28;20900;-74
2022/09/07 11:48:24;;;;;;;7.97;2.57;;;25.60;66.70;;;;;;5043327;28;20843;-74
2022/09/07 11:51:02;;;;;;;7.00;2.90;;;25.60;66.60;;;;;;5040031;28;20489;-75
2022/09/07 11:53:33;;;;;;;7.27;2.90;;;25.60;66.50;;;;;;5035834;28;22425;-74
2022/09/07 11:56:04;;;;;;;7.43;2.50;;;25.60;66.40;;;;;;5037975;28;20520;-74
2022/09/07 11:58:52;;;;;;;6.30;2.30;;;25.60;66.30;;;;;;5039804;28;20470;-74
2022/09/07 12:01:30;;;;;;;5.27;2.03;;;25.70;66.30;;;;;;5039026;28;20567;-75
2022/09/07 12:04:18;;;;;;;6.23;2.50;;;25.70;66.20;;;;;;5021572;28;21050;-75
2022/09/07 12:07:07;;;;;;;7.57;2.10;;;25.70;66.10;;;;;;5039276;28;20476;-75
2022/09/07 12:09:49;;;;;;;8.27;2.43;;;25.80;66.00;;;;;;5033568;28;21055;-74
2022/09/07 12:12:42;;;;;;;8.77;2.87;;;25.80;65.90;;;;;;5036903;28;20477;-74
2022/09/07 12:15:23;;;;;;;6.43;2.37;;;25.90;65.40;;;;;;5038287;28;20973;-74
2022/09/07 12:18:06;;;;;;;7.10;2.00;;;26.00;65.10;;;;;;5040440;28;20466;-75
2022/09/07 12:20:40;;;;;;;6.00;2.50;;;26.00;64.80;;;;;;5041100;28;20517;-74
2022/09/07 12:23:25;;;;;;;9.60;2.80;;;26.00;64.70;;;;;;5041780;28;20752;-74
2022/09/07 12:26:37;;;;;;;7.83;2.57;;;26.00;64.50;;;;;;5038249;28;20470;-74
2022/09/07 12:29:19;;;;;;;6.07;2.50;;;26.00;64.20;;;;;;5022912;28;20464;-74
2022/09/07 12:31:49;;;;;;;4.77;1.80;;;26.10;63.90;;;;;;5036571;28;21003;-74
2022/09/07 12:34:46;;;;;;;7.40;2.00;;;26.00;63.90;;;;;;5035778;28;20947;-74
2022/09/07 12:37:41;;;;;;;7.17;2.10;;;26.00;64.00;;;;;;5043365;28;20460;-74
2022/09/07 12:40:57;;;;;;;6.07;2.07;;;26.00;63.00;;;;;;5029258;28;20505;-74
2022/09/07 12:43:45;;;;;;;6.87;2.03;;;26.00;63.40;;;;;;5043327;28;20460;-74
2022/09/07 12:46:35;;;;;;;9.20;2.10;;;26.10;63.40;;;;;;5035550;28;20484;-74
2022/09/07 12:49:15;;;;;;;5.53;2.23;;;26.20;63.10;;;;;;5039085;28;20510;-74
2022/09/07 12:51:54;;;;;;;6.73;2.20;;;26.20;63.00;;;;;;5040525;28;20484;-74
2022/09/07 12:54:46;;;;;;;8.17;2.43;;;26.20;63.00;;;;;;5035430;28;20538;-74
2022/09/07 12:57:43;;;;;;;5.93;2.87;;;26.30;63.00;;;;;;5015036;28;20467;-75
2022/09/07 13:00:17;;;;;;;5.93;1.93;;;26.40;62.70;;;;;;5036897;28;20501;-75
2022/09/07 13:03:09;;;;;;;6.47;2.33;;;26.40;62.70;;;;;;5040829;28;20870;-75
2022/09/07 13:06:06;;;;;;;9.73;2.30;;;26.50;62.70;;;;;;5036846;28;20487;-74
2022/09/07 13:09:04;;;;;;;5.50;2.50;;;26.60;62.60;;;;;;5036456;28;20452;-74
2022/09/07 13:11:35;;;;;;;6.00;2.20;;;26.70;62.20;;;;;;5020704;28;20486;-74
2022/09/07 13:14:17;;;;;;;7.13;2.23;;;26.80;62.40;;;;;;5037324;28;20470;-75
2022/09/07 13:16:47;;;;;;;5.63;2.23;;;26.80;62.20;;;;;;5038633;28;20448;-74
2022/09/07 13:20:32;;;;;;;6.93;2.30;;;26.70;62.10;;;;;;5038172;28;20464;-74
2022/09/07 13:23:28;;;;;;;8.70;2.30;;;26.70;61.90;;;;;;5040640;28;20473;-74